Time;durP1;ratioP1;P1;durP2;ratioP2;P2;SDS_P1;SDS_P2;PMS_P1;PMS_P2;Temp;Humidity;BMP_temperature;BMP_pressure;BME280_temperature;BME280_humidity;BME280_pressure;Samples;Min_cycle;Max_cycle;Signal;HPM_P1;HPM_P2
2023/08/09 00:02:00;;;;;;;12.43;11.82;;;;;;;;;;5069471;28;20036;-59
2023/08/09 00:04:26;;;;;;;11.48;10.98;;;;;;;;;;5067946;28;20396;-59
2023/08/09 00:06:51;;;;;;;11.50;11.00;;;;;;;;;;5071310;28;20500;-58
2023/08/09 00:09:16;;;;;;;11.25;10.75;;;;;;;;;;5072745;28;20103;-59
2023/08/09 00:11:41;;;;;;;11.43;10.93;;;;;;;;;;5069815;28;20039;-58
2023/08/09 00:14:08;;;;;;;11.13;10.63;;;;;;;;;;5071226;28;20013;-59
2023/08/09 00:16:33;;;;;;;10.88;10.38;;;;;;;;;;5074465;28;20551;-59
2023/08/09 00:18:58;;;;;;;11.38;10.88;;;;;;;;;;5073775;28;20155;-58
2023/08/09 00:21:24;;;;;;;11.35;10.85;;;;;;;;;;5071306;28;20028;-58
2023/08/09 00:23:49;;;;;;;11.52;11.02;;;;;;;;;;5072061;28;20028;-58
2023/08/09 00:26:14;;;;;;;11.43;10.93;;;;;;;;;;5071896;28;20028;-58
2023/08/09 00:28:40;;;;;;;11.52;11.00;;;;;;;;;;5070995;28;20025;-58
2023/08/09 00:31:06;;;;;;;10.95;10.45;;;;;;;;;;5074401;28;20024;-59
2023/08/09 00:33:31;;;;;;;11.25;10.75;;;;;;;;;;5073538;28;20432;-59
2023/08/09 00:35:56;;;;;;;11.55;11.02;;;;;;;;;;5073227;28;20573;-58
2023/08/09 00:38:22;;;;;;;11.18;10.68;;;;;;;;;;5071012;28;20123;-59
2023/08/09 00:40:47;;;;;;;11.10;10.60;;;;;;;;;;5070264;28;20012;-59
2023/08/09 00:43:12;;;;;;;11.30;10.80;;;;;;;;;;5071256;28;20013;-57
2023/08/09 00:45:41;;;;;;;11.65;11.07;;;;;;;;;;5071839;28;20048;-59
2023/08/09 00:48:06;;;;;;;11.43;10.93;;;;;;;;;;5073616;28;20023;-59
2023/08/09 00:50:31;;;;;;;11.13;10.63;;;;;;;;;;5071753;28;20021;-57
2023/08/09 00:52:57;;;;;;;11.18;10.68;;;;;;;;;;5070356;28;20472;-58
2023/08/09 00:55:23;;;;;;;11.68;11.07;;;;;;;;;;5071370;28;20031;-58
2023/08/09 00:57:48;;;;;;;11.30;10.80;;;;;;;;;;5071071;28;20082;-60
2023/08/09 01:00:14;;;;;;;12.13;11.52;;;;;;;;;;5072279;28;20399;-58
2023/08/09 01:02:39;;;;;;;11.10;10.60;;;;;;;;;;5070868;28;20107;-58
2023/08/09 01:05:05;;;;;;;11.10;10.60;;;;;;;;;;5070963;28;20031;-58
2023/08/09 01:07:36;;;;;;;11.00;10.50;;;;;;;;;;5068650;28;20531;-58
2023/08/09 01:10:04;;;;;;;10.95;10.45;;;;;;;;;;5069726;28;20032;-59
2023/08/09 01:12:34;;;;;;;11.10;10.60;;;;;;;;;;5069509;28;20029;-58
2023/08/09 01:15:00;;;;;;;11.00;10.50;;;;;;;;;;5072608;28;20024;-60
2023/08/09 01:17:27;;;;;;;11.38;10.88;;;;;;;;;;5070466;28;20024;-58
2023/08/09 01:19:54;;;;;;;11.13;10.63;;;;;;;;;;5070769;28;20036;-59
2023/08/09 01:22:25;;;;;;;11.20;10.70;;;;;;;;;;5070831;28;20052;-59
2023/08/09 01:24:51;;;;;;;11.40;10.90;;;;;;;;;;5069809;28;20472;-59
2023/08/09 01:27:17;;;;;;;11.30;10.80;;;;;;;;;;5070204;28;20062;-59
2023/08/09 01:29:43;;;;;;;11.50;11.00;;;;;;;;;;5070422;28;20078;-59
2023/08/09 01:32:08;;;;;;;11.65;11.07;;;;;;;;;;5069424;28;20021;-59
2023/08/09 01:34:35;;;;;;;11.80;11.20;;;;;;;;;;5066796;28;20449;-58
2023/08/09 01:37:12;;;;;;;11.55;10.98;;;;;;;;;;5070361;28;20021;-58
2023/08/09 01:39:39;;;;;;;11.30;10.80;;;;;;;;;;5070316;28;20431;-59
2023/08/09 01:42:05;;;;;;;11.48;10.98;;;;;;;;;;5069743;28;20111;-59
2023/08/09 01:44:31;;;;;;;11.80;11.20;;;;;;;;;;5069020;28;20444;-59
2023/08/09 01:46:56;;;;;;;11.32;10.82;;;;;;;;;;5068525;28;20051;-58
2023/08/09 01:49:23;;;;;;;11.45;10.95;;;;;;;;;;5070325;28;20530;-59
2023/08/09 01:51:48;;;;;;;11.18;10.68;;;;;;;;;;5071026;28;20029;-58
2023/08/09 01:54:14;;;;;;;11.50;11.00;;;;;;;;;;5070643;28;20091;-58
2023/08/09 01:56:40;;;;;;;11.20;10.70;;;;;;;;;;5070502;28;20021;-58
2023/08/09 01:59:05;;;;;;;11.38;10.88;;;;;;;;;;5070220;28;20076;-58
2023/08/09 02:01:31;;;;;;;11.20;10.70;;;;;;;;;;5067941;28;20044;-59
2023/08/09 02:03:57;;;;;;;11.20;10.70;;;;;;;;;;5070150;28;20031;-58
2023/08/09 02:06:22;;;;;;;11.90;11.30;;;;;;;;;;5068129;28;20111;-58
2023/08/09 02:08:47;;;;;;;11.77;11.20;;;;;;;;;;5068314;28;20384;-58
2023/08/09 02:11:13;;;;;;;11.98;11.38;;;;;;;;;;5069658;28;20044;-59
2023/08/09 02:13:39;;;;;;;11.90;11.30;;;;;;;;;;5067346;28;20472;-59
2023/08/09 02:16:05;;;;;;;11.30;10.80;;;;;;;;;;5071031;28;20039;-60
2023/08/09 02:18:32;;;;;;;11.73;11.13;;;;;;;;;;5071215;28;20426;-58
2023/08/09 02:20:59;;;;;;;11.95;11.35;;;;;;;;;;5073395;28;20035;-60
2023/08/09 02:23:24;;;;;;;11.68;11.13;;;;;;;;;;5073976;28;20040;-58
2023/08/09 02:25:52;;;;;;;11.48;10.98;;;;;;;;;;5072378;28;20025;-58
2023/08/09 02:28:17;;;;;;;11.48;10.98;;;;;;;;;;5074237;28;20060;-59
2023/08/09 02:30:42;;;;;;;11.15;10.65;;;;;;;;;;5072057;28;20518;-58
2023/08/09 02:33:08;;;;;;;11.05;10.55;;;;;;;;;;5069284;28;20021;-58
2023/08/09 02:35:46;;;;;;;11.27;10.77;;;;;;;;;;5073617;28;20086;-59
2023/08/09 02:38:11;;;;;;;10.95;10.45;;;;;;;;;;5074358;28;20021;-58
2023/08/09 02:40:37;;;;;;;11.40;10.90;;;;;;;;;;5074022;28;20019;-59
2023/08/09 02:43:02;;;;;;;10.73;10.23;;;;;;;;;;5071697;28;20059;-59
2023/08/09 02:45:27;;;;;;;10.90;10.40;;;;;;;;;;5074213;28;20063;-58
2023/08/09 02:47:53;;;;;;;11.48;10.98;;;;;;;;;;5071580;28;20548;-59
2023/08/09 02:50:18;;;;;;;11.52;10.98;;;;;;;;;;5072342;28;20107;-58
2023/08/09 02:52:43;;;;;;;11.25;10.75;;;;;;;;;;5073374;28;20020;-58
2023/08/09 02:55:13;;;;;;;11.50;11.00;;;;;;;;;;5074408;28;20029;-58
2023/08/09 02:57:38;;;;;;;11.23;10.73;;;;;;;;;;5073872;28;20029;-59
2023/08/09 03:00:04;;;;;;;10.77;10.27;;;;;;;;;;5076463;28;20081;-58
2023/08/09 03:02:29;;;;;;;10.98;10.48;;;;;;;;;;5070294;28;20117;-59
2023/08/09 03:04:54;;;;;;;11.35;10.85;;;;;;;;;;5074046;28;20029;-59
2023/08/09 03:07:20;;;;;;;11.65;11.13;;;;;;;;;;5067949;28;20020;-58
2023/08/09 03:09:46;;;;;;;11.38;10.88;;;;;;;;;;5071831;28;20024;-60
2023/08/09 03:12:11;;;;;;;11.40;10.90;;;;;;;;;;5071952;28;20024;-59
2023/08/09 03:14:37;;;;;;;11.48;10.95;;;;;;;;;;5073123;28;20063;-58
2023/08/09 03:17:02;;;;;;;11.18;10.68;;;;;;;;;;5071103;28;20025;-61
2023/08/09 03:19:27;;;;;;;11.30;10.80;;;;;;;;;;5072385;28;20031;-58
2023/08/09 03:21:52;;;;;;;10.80;10.30;;;;;;;;;;5074101;28;20443;-58
2023/08/09 03:24:18;;;;;;;11.20;10.70;;;;;;;;;;5072386;28;20111;-59
2023/08/09 03:26:43;;;;;;;11.48;10.98;;;;;;;;;;5072102;28;20033;-59
2023/08/09 03:29:09;;;;;;;11.07;10.57;;;;;;;;;;5075332;28;20023;-59
2023/08/09 03:31:34;;;;;;;10.80;10.30;;;;;;;;;;5072850;28;20029;-59
2023/08/09 03:34:01;;;;;;;11.30;10.80;;;;;;;;;;5054097;28;20100;-60
2023/08/09 03:36:26;;;;;;;11.43;10.93;;;;;;;;;;5073267;28;20017;-58
2023/08/09 03:38:52;;;;;;;11.48;10.98;;;;;;;;;;5075800;28;20108;-59
2023/08/09 03:41:17;;;;;;;11.60;11.10;;;;;;;;;;5072723;28;20021;-58
2023/08/09 03:43:42;;;;;;;11.70;11.20;;;;;;;;;;5074579;28;20028;-58
2023/08/09 03:46:08;;;;;;;12.00;11.48;;;;;;;;;;5075175;28;20120;-59
2023/08/09 03:48:34;;;;;;;12.32;11.73;;;;;;;;;;5072213;28;20040;-60
2023/08/09 03:50:59;;;;;;;11.25;10.75;;;;;;;;;;5073600;28;20028;-59
2023/08/09 03:53:25;;;;;;;11.52;11.02;;;;;;;;;;5071464;28;20021;-59
2023/08/09 03:55:51;;;;;;;11.80;11.30;;;;;;;;;;5075055;28;20061;-59
2023/08/09 03:58:16;;;;;;;11.70;11.20;;;;;;;;;;5071349;28;20103;-60
2023/08/09 04:00:42;;;;;;;11.65;11.15;;;;;;;;;;5073858;28;20041;-58
2023/08/09 04:03:07;;;;;;;11.65;11.15;;;;;;;;;;5074268;28;20041;-58
2023/08/09 04:05:34;;;;;;;12.25;11.73;;;;;;;;;;5072843;28;20094;-59
2023/08/09 04:08:02;;;;;;;11.68;11.18;;;;;;;;;;5070212;28;20028;-59
2023/08/09 04:10:27;;;;;;;12.02;11.52;;;;;;;;;;5072798;28;20017;-58
2023/08/09 04:12:52;;;;;;;11.70;11.20;;;;;;;;;;5072353;28;20107;-59
2023/08/09 04:15:18;;;;;;;11.80;11.30;;;;;;;;;;5071338;28;20021;-59
2023/08/09 04:17:43;;;;;;;11.50;11.00;;;;;;;;;;5074376;28;20025;-59
2023/08/09 04:20:11;;;;;;;11.65;11.15;;;;;;;;;;5072204;28;20028;-59
2023/08/09 04:22:38;;;;;;;11.73;11.23;;;;;;;;;;5071571;28;20023;-60
2023/08/09 04:25:04;;;;;;;11.65;11.15;;;;;;;;;;5053285;28;20032;-59
2023/08/09 04:27:31;;;;;;;11.20;10.70;;;;;;;;;;5074169;28;20028;-59
2023/08/09 04:29:56;;;;;;;11.40;10.90;;;;;;;;;;5072089;28;20024;-59
2023/08/09 04:32:21;;;;;;;11.23;10.73;;;;;;;;;;5072795;28;20066;-60
2023/08/09 04:34:47;;;;;;;11.60;11.10;;;;;;;;;;5077244;28;20062;-58
2023/08/09 04:37:13;;;;;;;11.57;11.07;;;;;;;;;;5070279;28;20100;-59
2023/08/09 04:39:38;;;;;;;11.40;10.90;;;;;;;;;;5072761;28;20375;-60
2023/08/09 04:42:04;;;;;;;11.53;11.03;;;;;;;;;;5071617;28;20384;-59
2023/08/09 04:44:30;;;;;;;11.73;11.23;;;;;;;;;;5070181;28;20270;-59
2023/08/09 04:46:56;;;;;;;11.73;11.23;;;;;;;;;;5071706;28;20032;-60
2023/08/09 04:49:21;;;;;;;11.50;11.00;;;;;;;;;;5074251;28;20490;-59
2023/08/09 04:51:47;;;;;;;11.50;11.00;;;;;;;;;;5072241;28;20028;-59
2023/08/09 04:54:12;;;;;;;11.27;10.77;;;;;;;;;;5071576;28;20256;-60
2023/08/09 04:56:38;;;;;;;11.70;11.20;;;;;;;;;;5071124;28;20024;-59
2023/08/09 04:59:03;;;;;;;11.55;11.05;;;;;;;;;;5070457;28;20265;-60
2023/08/09 05:01:29;;;;;;;11.77;11.27;;;;;;;;;;5070351;28;20662;-59
2023/08/09 05:03:54;;;;;;;11.48;10.98;;;;;;;;;;5070105;28;20025;-59
2023/08/09 05:06:19;;;;;;;11.63;11.13;;;;;;;;;;5068178;28;20025;-58
2023/08/09 05:08:45;;;;;;;11.40;10.90;;;;;;;;;;5069087;28;20032;-60
2023/08/09 05:11:11;;;;;;;11.38;10.88;;;;;;;;;;5069404;28;20798;-59
2023/08/09 05:13:36;;;;;;;11.57;11.07;;;;;;;;;;5071856;28;20021;-58
2023/08/09 05:16:01;;;;;;;11.17;10.67;;;;;;;;;;5070727;28;20016;-59
2023/08/09 05:18:27;;;;;;;11.87;11.37;;;;;;;;;;5067472;28;20266;-59
2023/08/09 05:20:52;;;;;;;11.55;11.05;;;;;;;;;;5069123;28;20253;-59
2023/08/09 05:23:17;;;;;;;11.38;10.88;;;;;;;;;;5068460;28;20017;-59
2023/08/09 05:25:43;;;;;;;11.63;11.13;;;;;;;;;;5070256;28;20063;-60
2023/08/09 05:28:08;;;;;;;11.60;11.10;;;;;;;;;;5070215;28;20028;-60
2023/08/09 05:30:33;;;;;;;11.67;11.17;;;;;;;;;;5069621;28;20025;-59
2023/08/09 05:32:59;;;;;;;11.60;11.10;;;;;;;;;;5071655;28;20410;-59
2023/08/09 05:35:26;;;;;;;11.45;10.95;;;;;;;;;;5069653;28;20261;-58
2023/08/09 05:37:52;;;;;;;11.57;11.07;;;;;;;;;;5067978;28;20020;-58
2023/08/09 05:40:17;;;;;;;11.55;11.05;;;;;;;;;;5067002;28;20019;-60
2023/08/09 05:42:43;;;;;;;11.48;10.98;;;;;;;;;;5069540;28;20034;-59
2023/08/09 05:45:08;;;;;;;11.88;11.38;;;;;;;;;;5070653;28;20667;-60
2023/08/09 05:47:34;;;;;;;11.27;10.77;;;;;;;;;;5053011;28;20116;-59
2023/08/09 05:49:59;;;;;;;11.50;11.00;;;;;;;;;;5072193;28;20020;-59
2023/08/09 05:52:25;;;;;;;11.30;10.80;;;;;;;;;;5062945;28;20029;-58
2023/08/09 05:54:50;;;;;;;11.55;11.05;;;;;;;;;;5069709;28;20018;-61
2023/08/09 05:57:16;;;;;;;11.30;10.80;;;;;;;;;;5067863;28;20020;-60
2023/08/09 05:59:41;;;;;;;11.40;10.90;;;;;;;;;;5070605;28;20668;-60
2023/08/09 06:02:06;;;;;;;11.13;10.63;;;;;;;;;;5072415;28;20041;-59
2023/08/09 06:04:32;;;;;;;11.07;10.57;;;;;;;;;;5067914;28;20024;-59
2023/08/09 06:06:57;;;;;;;11.55;11.05;;;;;;;;;;5072353;28;20053;-59
2023/08/09 06:09:23;;;;;;;11.20;10.70;;;;;;;;;;5051384;28;20036;-59
2023/08/09 06:11:49;;;;;;;11.40;10.90;;;;;;;;;;5069861;28;20277;-60
2023/08/09 06:14:14;;;;;;;11.23;10.73;;;;;;;;;;5069017;28;20127;-60
2023/08/09 06:16:40;;;;;;;11.27;10.77;;;;;;;;;;5069406;28;20044;-62
2023/08/09 06:19:05;;;;;;;11.50;11.00;;;;;;;;;;5071323;28;20058;-58
2023/08/09 06:21:31;;;;;;;11.13;10.63;;;;;;;;;;5069935;28;20052;-59
2023/08/09 06:23:56;;;;;;;11.40;10.90;;;;;;;;;;5069666;28;20324;-59
2023/08/09 06:26:21;;;;;;;11.37;10.87;;;;;;;;;;5068558;28;20807;-60
2023/08/09 06:28:48;;;;;;;11.30;10.80;;;;;;;;;;5069459;28;20025;-58
2023/08/09 06:31:15;;;;;;;11.43;10.93;;;;;;;;;;5070253;28;20373;-61
2023/08/09 06:33:42;;;;;;;11.43;10.93;;;;;;;;;;5067753;28;20032;-58
2023/08/09 06:36:08;;;;;;;11.32;10.82;;;;;;;;;;5066945;28;20369;-59
2023/08/09 06:38:33;;;;;;;11.30;10.80;;;;;;;;;;5069105;28;20031;-59
2023/08/09 06:40:58;;;;;;;11.30;10.80;;;;;;;;;;5066106;28;20020;-60
2023/08/09 06:43:24;;;;;;;11.37;10.87;;;;;;;;;;5067842;28;20253;-60
2023/08/09 06:45:50;;;;;;;11.50;11.00;;;;;;;;;;5068694;28;20249;-59
2023/08/09 06:48:16;;;;;;;11.32;10.82;;;;;;;;;;5067424;28;20257;-61
2023/08/09 06:50:41;;;;;;;11.40;10.90;;;;;;;;;;5066921;28;20071;-59
2023/08/09 06:53:08;;;;;;;11.40;10.90;;;;;;;;;;5069751;28;20284;-61
2023/08/09 06:55:33;;;;;;;11.60;11.10;;;;;;;;;;5068416;28;20104;-58
2023/08/09 06:57:58;;;;;;;11.48;10.98;;;;;;;;;;5068772;28;20092;-59
2023/08/09 07:00:24;;;;;;;11.33;10.83;;;;;;;;;;5068835;28;20389;-60
2023/08/09 07:02:50;;;;;;;10.98;10.48;;;;;;;;;;5070391;28;20095;-60
2023/08/09 07:05:18;;;;;;;11.55;11.05;;;;;;;;;;5051229;28;20476;-60
2023/08/09 07:07:44;;;;;;;10.98;10.48;;;;;;;;;;5067818;28;20115;-60
2023/08/09 07:10:10;;;;;;;11.20;10.70;;;;;;;;;;5063631;28;20474;-59
2023/08/09 07:12:36;;;;;;;11.13;10.63;;;;;;;;;;5073662;28;20103;-59
2023/08/09 07:15:01;;;;;;;11.30;10.80;;;;;;;;;;5073778;28;20519;-59
2023/08/09 07:17:26;;;;;;;11.38;10.88;;;;;;;;;;5071952;28;20044;-58
2023/08/09 07:19:52;;;;;;;11.45;10.95;;;;;;;;;;5072375;28;20460;-58
2023/08/09 07:22:17;;;;;;;11.27;10.77;;;;;;;;;;5072903;28;20101;-60
2023/08/09 07:24:42;;;;;;;11.13;10.63;;;;;;;;;;5069676;28;20477;-60
2023/08/09 07:27:08;;;;;;;11.20;10.70;;;;;;;;;;5072311;28;20035;-60
2023/08/09 07:29:33;;;;;;;11.13;10.63;;;;;;;;;;5072542;28;20146;-59
2023/08/09 07:31:58;;;;;;;11.52;11.02;;;;;;;;;;5072027;28;20652;-58
2023/08/09 07:34:24;;;;;;;11.37;10.87;;;;;;;;;;5073304;28;20056;-60
2023/08/09 07:36:49;;;;;;;11.40;10.90;;;;;;;;;;5072832;28;20027;-60
2023/08/09 07:39:14;;;;;;;11.07;10.57;;;;;;;;;;5068995;28;20436;-59
2023/08/09 07:41:39;;;;;;;11.07;10.57;;;;;;;;;;5072041;28;20121;-59
2023/08/09 07:44:05;;;;;;;11.40;10.90;;;;;;;;;;5071264;28;20315;-59
2023/08/09 07:46:30;;;;;;;11.23;10.73;;;;;;;;;;5072092;28;20064;-58
2023/08/09 07:48:56;;;;;;;11.07;10.57;;;;;;;;;;5072712;28;20100;-58
2023/08/09 07:51:21;;;;;;;11.23;10.73;;;;;;;;;;5074236;28;20692;-59
2023/08/09 07:53:47;;;;;;;11.03;10.53;;;;;;;;;;5071746;28;20020;-60
2023/08/09 07:56:13;;;;;;;11.35;10.85;;;;;;;;;;5073001;28;20260;-58
2023/08/09 07:58:39;;;;;;;11.40;10.90;;;;;;;;;;5073752;28;20028;-60
2023/08/09 08:01:04;;;;;;;11.20;10.70;;;;;;;;;;5056093;28;20420;-59
2023/08/09 08:03:30;;;;;;;11.67;11.17;;;;;;;;;;5042502;28;20029;-59
2023/08/09 08:05:56;;;;;;;11.23;10.73;;;;;;;;;;5048148;28;20270;-59
2023/08/09 08:08:21;;;;;;;11.43;10.93;;;;;;;;;;5051414;28;20055;-59
2023/08/09 08:10:47;;;;;;;11.30;10.80;;;;;;;;;;5049530;28;20678;-60
2023/08/09 08:13:13;;;;;;;11.40;10.90;;;;;;;;;;5053836;28;20036;-59
2023/08/09 08:15:38;;;;;;;11.60;11.10;;;;;;;;;;5055344;28;20070;-59
2023/08/09 08:18:04;;;;;;;11.50;11.00;;;;;;;;;;5053344;28;20024;-59
2023/08/09 08:20:29;;;;;;;11.75;11.25;;;;;;;;;;5052176;28;20246;-58
2023/08/09 08:22:55;;;;;;;11.50;11.00;;;;;;;;;;5055268;28;20021;-60
2023/08/09 08:25:20;;;;;;;11.87;11.37;;;;;;;;;;5056065;28;20257;-60
2023/08/09 08:27:45;;;;;;;11.40;10.90;;;;;;;;;;5054804;28;20290;-60
2023/08/09 08:30:16;;;;;;;11.60;11.10;;;;;;;;;;5052110;28;20355;-59
2023/08/09 08:32:42;;;;;;;11.88;11.38;;;;;;;;;;5051670;28;20051;-59
2023/08/09 08:35:10;;;;;;;11.60;11.10;;;;;;;;;;5050932;28;20017;-59
2023/08/09 08:37:36;;;;;;;11.80;11.30;;;;;;;;;;5052814;28;20020;-59
2023/08/09 08:40:06;;;;;;;11.60;11.10;;;;;;;;;;5054194;28;20486;-59
2023/08/09 08:42:32;;;;;;;11.70;11.20;;;;;;;;;;5053682;28;20025;-58
2023/08/09 08:44:57;;;;;;;11.23;10.73;;;;;;;;;;5052037;28;20025;-60
2023/08/09 08:47:23;;;;;;;11.37;10.87;;;;;;;;;;5052193;28;20265;-59
2023/08/09 08:49:49;;;;;;;11.35;10.85;;;;;;;;;;5051318;28;20308;-59
2023/08/09 08:52:15;;;;;;;11.70;11.20;;;;;;;;;;5053994;28;20028;-59
2023/08/09 08:54:40;;;;;;;11.55;11.05;;;;;;;;;;5055020;28;20047;-59
2023/08/09 08:57:07;;;;;;;12.45;11.85;;;;;;;;;;5051564;28;20039;-59
2023/08/09 08:59:34;;;;;;;11.70;11.20;;;;;;;;;;5051534;28;20032;-59
2023/08/09 09:02:01;;;;;;;11.55;11.05;;;;;;;;;;5070136;28;20070;-58
2023/08/09 09:04:26;;;;;;;11.75;11.25;;;;;;;;;;5072094;28;20111;-59
2023/08/09 09:06:51;;;;;;;11.63;11.13;;;;;;;;;;5070248;28;20498;-59
2023/08/09 09:09:20;;;;;;;11.50;11.00;;;;;;;;;;5070792;28;20452;-58
2023/08/09 09:11:46;;;;;;;11.50;11.00;;;;;;;;;;5072630;28;20111;-59
2023/08/09 09:14:15;;;;;;;11.35;10.85;;;;;;;;;;5071350;28;20147;-59
2023/08/09 09:16:43;;;;;;;11.90;11.40;;;;;;;;;;5067281;28;20507;-59
2023/08/09 09:19:09;;;;;;;11.55;11.05;;;;;;;;;;5072646;28;20028;-58
2023/08/09 09:21:35;;;;;;;11.05;10.55;;;;;;;;;;5072540;28;20024;-59
2023/08/09 09:24:07;;;;;;;11.63;11.13;;;;;;;;;;5071096;28;20032;-58
2023/08/09 09:26:32;;;;;;;11.60;11.10;;;;;;;;;;5073709;28;20044;-59
2023/08/09 09:28:58;;;;;;;11.18;10.68;;;;;;;;;;5070841;28;20025;-59
2023/08/09 09:31:32;;;;;;;11.60;11.10;;;;;;;;;;5071621;28;20408;-59
2023/08/09 09:33:59;;;;;;;11.30;10.80;;;;;;;;;;5069917;28;20348;-60
2023/08/09 09:36:25;;;;;;;11.55;11.05;;;;;;;;;;5071454;28;20592;-58
2023/08/09 09:38:53;;;;;;;11.63;11.13;;;;;;;;;;5070551;28;20127;-60
2023/08/09 09:41:20;;;;;;;11.60;11.10;;;;;;;;;;5071918;28;20031;-58
2023/08/09 09:43:47;;;;;;;12.32;11.73;;;;;;;;;;5069958;28;20548;-59
2023/08/09 09:46:17;;;;;;;11.32;10.82;;;;;;;;;;5070728;28;20071;-59
2023/08/09 09:48:47;;;;;;;11.45;10.95;;;;;;;;;;5069934;28;20031;-59
2023/08/09 09:51:13;;;;;;;12.38;11.77;;;;;;;;;;5072126;28;20033;-59
2023/08/09 09:53:38;;;;;;;11.90;11.40;;;;;;;;;;5072598;28;20024;-59
2023/08/09 09:56:04;;;;;;;11.65;11.15;;;;;;;;;;5069738;28;20475;-60
2023/08/09 09:58:29;;;;;;;11.80;11.30;;;;;;;;;;5070278;28;20024;-61
2023/08/09 10:00:55;;;;;;;11.40;10.90;;;;;;;;;;5072762;28;20091;-59
2023/08/09 10:03:23;;;;;;;11.20;10.70;;;;;;;;;;5073339;28;20024;-59
2023/08/09 10:05:49;;;;;;;11.50;11.00;;;;;;;;;;5070834;28;20090;-59
2023/08/09 10:08:16;;;;;;;11.60;11.10;;;;;;;;;;5070159;28;20009;-59
2023/08/09 10:10:44;;;;;;;11.52;11.02;;;;;;;;;;5068268;28;20488;-60
2023/08/09 10:13:10;;;;;;;11.10;10.60;;;;;;;;;;5067949;28;20024;-60
2023/08/09 10:15:38;;;;;;;11.63;11.13;;;;;;;;;;5070277;28;20031;-59
2023/08/09 10:18:26;;;;;;;11.68;11.18;;;;;;;;;;5068477;28;20021;-59
2023/08/09 10:20:55;;;;;;;11.65;11.15;;;;;;;;;;5055126;28;20040;-60
2023/08/09 10:23:30;;;;;;;12.60;12.00;;;;;;;;;;5065257;28;20020;-59
2023/08/09 10:25:56;;;;;;;11.48;10.98;;;;;;;;;;5069991;28;20479;-60
2023/08/09 10:28:47;;;;;;;11.13;10.63;;;;;;;;;;5069084;28;20052;-60
2023/08/09 10:31:13;;;;;;;11.75;11.25;;;;;;;;;;5071227;28;20395;-60
2023/08/09 10:33:42;;;;;;;12.35;11.75;;;;;;;;;;5069817;28;20016;-60
2023/08/09 10:36:10;;;;;;;11.63;11.13;;;;;;;;;;5069601;28;20020;-60
2023/08/09 10:38:35;;;;;;;11.05;10.55;;;;;;;;;;5070253;28;20028;-59
2023/08/09 10:41:07;;;;;;;10.88;10.38;;;;;;;;;;5071507;28;20408;-59
2023/08/09 10:43:33;;;;;;;12.23;11.68;;;;;;;;;;5074177;28;20025;-59
2023/08/09 10:46:16;;;;;;;11.95;11.45;;;;;;;;;;5073555;28;20021;-58
2023/08/09 10:48:48;;;;;;;12.18;11.57;;;;;;;;;;5071832;28;20383;-58
2023/08/09 10:51:13;;;;;;;12.45;11.85;;;;;;;;;;5074281;28;20105;-59
2023/08/09 10:53:54;;;;;;;11.60;11.10;;;;;;;;;;5074175;28;20009;-60
2023/08/09 10:56:30;;;;;;;11.85;11.35;;;;;;;;;;5072327;28;20025;-59
2023/08/09 10:58:55;;;;;;;11.40;10.90;;;;;;;;;;5075998;28;20095;-59
2023/08/09 11:01:25;;;;;;;11.70;11.20;;;;;;;;;;5073951;28;20520;-58
2023/08/09 11:03:52;;;;;;;12.05;11.52;;;;;;;;;;5076541;28;20020;-59
2023/08/09 11:06:30;;;;;;;11.98;11.48;;;;;;;;;;5074276;28;20122;-60
2023/08/09 11:09:04;;;;;;;11.02;10.52;;;;;;;;;;5072161;28;20086;-60
2023/08/09 11:11:30;;;;;;;11.48;10.98;;;;;;;;;;5071052;28;20086;-59
2023/08/09 11:13:56;;;;;;;11.00;10.50;;;;;;;;;;5074749;28;20020;-59
2023/08/09 11:16:21;;;;;;;11.32;10.82;;;;;;;;;;5073034;28;20253;-59
2023/08/09 11:18:46;;;;;;;11.00;10.50;;;;;;;;;;5071445;28;20044;-60
2023/08/09 11:21:11;;;;;;;11.67;11.17;;;;;;;;;;5074038;28;20594;-59
2023/08/09 11:23:37;;;;;;;11.80;11.30;;;;;;;;;;5073161;28;20256;-59
2023/08/09 11:26:02;;;;;;;11.60;11.10;;;;;;;;;;5073411;28;20013;-60
2023/08/09 11:28:29;;;;;;;11.07;10.57;;;;;;;;;;5079475;28;20043;-60
2023/08/09 11:30:54;;;;;;;11.48;10.98;;;;;;;;;;5074194;28;20503;-60
2023/08/09 11:33:19;;;;;;;11.70;11.20;;;;;;;;;;5075306;28;20027;-59
2023/08/09 11:35:45;;;;;;;11.40;10.90;;;;;;;;;;5074987;28;20054;-59
2023/08/09 11:38:12;;;;;;;11.60;11.10;;;;;;;;;;5072147;28;20013;-59
2023/08/09 11:40:41;;;;;;;11.63;11.13;;;;;;;;;;5070792;28;20028;-60
2023/08/09 11:43:09;;;;;;;11.05;10.55;;;;;;;;;;5077122;28;20016;-59
2023/08/09 11:45:42;;;;;;;11.73;11.23;;;;;;;;;;5072093;28;20025;-59
2023/08/09 11:48:08;;;;;;;11.40;10.90;;;;;;;;;;5073535;28;20039;-60
2023/08/09 11:50:33;;;;;;;11.60;11.10;;;;;;;;;;5073367;28;20032;-60
2023/08/09 11:52:58;;;;;;;11.35;10.85;;;;;;;;;;5068679;28;20016;-60
2023/08/09 11:55:25;;;;;;;11.82;11.32;;;;;;;;;;5072630;28;20075;-59
2023/08/09 11:57:51;;;;;;;11.52;11.02;;;;;;;;;;5072098;28;20020;-59
2023/08/09 12:00:17;;;;;;;11.80;11.30;;;;;;;;;;5076418;28;20056;-59
2023/08/09 12:02:43;;;;;;;11.02;10.52;;;;;;;;;;5055564;28;20447;-60
2023/08/09 12:05:12;;;;;;;11.30;10.80;;;;;;;;;;5073504;28;20127;-60
2023/08/09 12:07:37;;;;;;;11.25;10.75;;;;;;;;;;5071813;28;20099;-58
2023/08/09 12:10:03;;;;;;;11.43;10.93;;;;;;;;;;5077841;28;20119;-59
2023/08/09 12:12:36;;;;;;;11.40;10.90;;;;;;;;;;5071090;28;20543;-59
2023/08/09 12:15:01;;;;;;;11.30;10.80;;;;;;;;;;5070837;28;20016;-58
2023/08/09 12:17:27;;;;;;;11.90;11.40;;;;;;;;;;5072085;28;20494;-58
2023/08/09 12:19:56;;;;;;;11.05;10.55;;;;;;;;;;5073283;28;20024;-59
2023/08/09 12:22:21;;;;;;;11.25;10.75;;;;;;;;;;5072524;28;20024;-60
2023/08/09 12:24:47;;;;;;;11.10;10.60;;;;;;;;;;5073981;28;20017;-59
2023/08/09 12:27:12;;;;;;;11.68;11.18;;;;;;;;;;5069909;28;20020;-59
2023/08/09 12:29:37;;;;;;;11.50;11.00;;;;;;;;;;5072206;28;20387;-59
2023/08/09 12:32:03;;;;;;;11.32;10.82;;;;;;;;;;5069469;28;20029;-58
2023/08/09 12:34:29;;;;;;;11.25;10.75;;;;;;;;;;5071009;28;20786;-59
2023/08/09 12:36:54;;;;;;;11.60;11.10;;;;;;;;;;5071584;28;20108;-58
2023/08/09 12:39:20;;;;;;;12.40;11.80;;;;;;;;;;5071545;28;20388;-61
2023/08/09 12:41:45;;;;;;;11.07;10.57;;;;;;;;;;5073247;28;20021;-58
2023/08/09 12:44:11;;;;;;;10.93;10.43;;;;;;;;;;5070619;28;20497;-59
2023/08/09 12:46:37;;;;;;;11.15;10.65;;;;;;;;;;5071122;28;20039;-59
2023/08/09 12:49:03;;;;;;;11.38;10.88;;;;;;;;;;5052750;28;20094;-60
2023/08/09 12:51:28;;;;;;;11.40;10.90;;;;;;;;;;5070531;28;20036;-59
2023/08/09 12:53:54;;;;;;;11.10;10.60;;;;;;;;;;5070612;28;20027;-60
2023/08/09 12:56:19;;;;;;;11.48;10.98;;;;;;;;;;5072020;28;20100;-58
2023/08/09 12:58:45;;;;;;;11.32;10.82;;;;;;;;;;5071321;28;20036;-60
2023/08/09 13:01:10;;;;;;;11.45;10.95;;;;;;;;;;5061341;28;20044;-60
2023/08/09 13:03:36;;;;;;;11.45;10.95;;;;;;;;;;5050195;28;20017;-59
2023/08/09 13:06:01;;;;;;;11.30;10.80;;;;;;;;;;5050259;28;20424;-59
2023/08/09 13:08:27;;;;;;;11.50;11.00;;;;;;;;;;5049818;28;20060;-59
2023/08/09 13:10:52;;;;;;;11.30;10.80;;;;;;;;;;5050741;28;20025;-61
2023/08/09 13:13:17;;;;;;;11.50;11.00;;;;;;;;;;5050519;28;20024;-59
2023/08/09 13:15:43;;;;;;;10.90;10.40;;;;;;;;;;5049674;28;20399;-60
2023/08/09 13:18:08;;;;;;;11.00;10.50;;;;;;;;;;5050890;28;20413;-59
2023/08/09 13:20:33;;;;;;;11.70;11.20;;;;;;;;;;5045764;28;20029;-60
2023/08/09 13:22:58;;;;;;;11.65;11.15;;;;;;;;;;5048627;28;20040;-59
2023/08/09 13:25:24;;;;;;;11.20;10.70;;;;;;;;;;5047362;28;20124;-60
2023/08/09 13:27:49;;;;;;;11.35;10.85;;;;;;;;;;5050263;28;20916;-60
2023/08/09 13:30:16;;;;;;;11.35;10.85;;;;;;;;;;5047288;28;20021;-59
2023/08/09 13:32:41;;;;;;;11.32;10.82;;;;;;;;;;5050885;28;20444;-60
2023/08/09 13:35:09;;;;;;;11.25;10.75;;;;;;;;;;5050519;28;20025;-59
2023/08/09 13:37:40;;;;;;;11.40;10.90;;;;;;;;;;5050134;28;20031;-60
2023/08/09 13:40:09;;;;;;;11.35;10.85;;;;;;;;;;5050930;28;20475;-60
2023/08/09 13:42:34;;;;;;;11.25;10.75;;;;;;;;;;5050683;28;20370;-61
2023/08/09 13:44:59;;;;;;;11.40;10.90;;;;;;;;;;5050198;28;20163;-59
2023/08/09 13:47:25;;;;;;;11.50;11.00;;;;;;;;;;5050479;28;20135;-59
2023/08/09 13:49:50;;;;;;;11.13;10.63;;;;;;;;;;5050463;28;20112;-58
2023/08/09 13:52:16;;;;;;;12.18;11.63;;;;;;;;;;5045334;28;20029;-58
2023/08/09 13:54:41;;;;;;;11.77;11.27;;;;;;;;;;5048030;28;20118;-60
2023/08/09 13:57:07;;;;;;;11.38;10.88;;;;;;;;;;5050077;28;20017;-60
2023/08/09 13:59:32;;;;;;;11.07;10.57;;;;;;;;;;5049442;28;20592;-60
2023/08/09 14:01:57;;;;;;;11.30;10.80;;;;;;;;;;5068770;28;20040;-60
2023/08/09 14:04:23;;;;;;;10.83;10.33;;;;;;;;;;5070168;28;20253;-59
2023/08/09 14:06:48;;;;;;;11.48;10.98;;;;;;;;;;5070472;28;20257;-60
2023/08/09 14:09:13;;;;;;;11.40;10.90;;;;;;;;;;5070076;28;20050;-60
2023/08/09 14:11:39;;;;;;;11.60;11.10;;;;;;;;;;5069034;28;20021;-59